Terminal Aerodrome Forecast
Issued by NWS

Home | Current Version | Previous Version | Text Only | Print | Product List | Glossary On
Versions: 1 2 3 4 5 6 7 8 9 10 11 12 13 14 15
479
FTUS41 KCAR 200520
TAFPQI
TAF
KPQI 200520Z 2006/2106 15004KT P6SM OVC080
     FM201000 VRB03KT 5SM -SNPL OVC025
     FM201400 03005KT 5SM -FZRAPL OVC020
     FM201700 05005KT 5SM -RAPL OVC015
     FM202200 08005KT 3SM -FZRAPL OVC012=

USA.gov is the U.S. government's official web portal to all federal, state and local government web resources and services.